Time;durP1;ratioP1;P1;durP2;ratioP2;P2;SDS_P1;SDS_P2;PMS_P1;PMS_P2;Temp;Humidity;BMP_temperature;BMP_pressure;BME280_temperature;BME280_humidity;BME280_pressure;Samples;Min_cycle;Max_cycle;Signal;HPM_P1;HPM_P2
2020/12/05 00:01:49;;;;;;;12.75;8.82;;;3.00;99.40;;;;;;5045437;28;20152;-77
2020/12/05 00:04:15;;;;;;;16.50;10.00;;;3.00;99.50;;;;;;5044981;28;20154;-78
2020/12/05 00:06:41;;;;;;;14.77;9.65;;;3.00;99.50;;;;;;5045993;28;20143;-78
2020/12/05 00:09:07;;;;;;;13.50;9.82;;;2.90;99.60;;;;;;5044677;28;20764;-78
2020/12/05 00:11:32;;;;;;;12.77;9.93;;;2.90;99.60;;;;;;5046080;28;20037;-77
2020/12/05 00:13:58;;;;;;;16.25;10.23;;;2.90;99.60;;;;;;5048103;28;20421;-78
2020/12/05 00:16:24;;;;;;;12.80;9.88;;;2.90;99.60;;;;;;5035351;28;20037;-78
2020/12/05 00:19:11;;;;;;;13.15;10.52;;;2.90;99.60;;;;;;5003370;28;20044;-78
2020/12/05 00:21:57;;;;;;;15.27;11.07;;;2.80;99.60;;;;;;5032564;28;20049;-77
2020/12/05 00:24:24;;;;;;;13.93;10.13;;;2.80;99.60;;;;;;5045812;28;20055;-77
2020/12/05 00:26:51;;;;;;;14.45;11.10;;;2.80;99.70;;;;;;5046361;28;20047;-76
2020/12/05 00:29:17;;;;;;;16.95;11.95;;;2.70;99.70;;;;;;5023068;28;20110;-76
2020/12/05 00:31:44;;;;;;;16.13;11.93;;;2.70;99.90;;;;;;5043289;28;20541;-77
2020/12/05 00:34:09;;;;;;;17.85;12.30;;;2.60;99.60;;;;;;5045423;28;20116;-77
2020/12/05 00:36:35;;;;;;;16.48;12.05;;;2.60;99.60;;;;;;5018482;28;20121;-76
2020/12/05 00:39:03;;;;;;;18.17;12.45;;;2.50;99.60;;;;;;5028410;28;20071;-76
2020/12/05 00:41:29;;;;;;;17.35;12.10;;;2.50;99.60;;;;;;5029385;28;20041;-76
2020/12/05 00:44:14;;;;;;;19.35;13.35;;;2.40;99.60;;;;;;5022937;28;20050;-76
2020/12/05 00:46:41;;;;;;;20.08;13.82;;;2.30;99.60;;;;;;5039444;28;20063;-76
2020/12/05 00:49:06;;;;;;;19.13;12.75;;;2.30;99.60;;;;;;5050398;28;20486;-76
2020/12/05 00:51:32;;;;;;;20.48;14.20;;;2.30;99.70;;;;;;5043383;28;20108;-78
2020/12/05 00:54:18;;;;;;;21.30;14.82;;;2.20;99.70;;;;;;5027293;28;20479;-74
2020/12/05 00:57:04;;;;;;;17.13;13.15;;;2.20;99.70;;;;;;5030452;28;20073;-75
2020/12/05 00:59:29;;;;;;;21.63;14.43;;;2.10;99.70;;;;;;5047279;28;20438;-74
2020/12/05 01:01:55;;;;;;;20.85;13.27;;;2.00;99.70;;;;;;5052435;28;20033;-74
2020/12/05 01:04:22;;;;;;;16.02;12.73;;;2.00;99.70;;;;;;5054118;28;20478;-75
2020/12/05 01:06:48;;;;;;;21.20;14.25;;;1.90;99.60;;;;;;5026034;28;20065;-74
2020/12/05 01:09:14;;;;;;;21.13;14.70;;;1.90;99.70;;;;;;5026954;28;20041;-73
2020/12/05 01:11:40;;;;;;;20.65;14.32;;;1.80;99.70;;;;;;5034494;28;20033;-75
2020/12/05 01:14:06;;;;;;;24.88;16.60;;;1.80;99.80;;;;;;5032476;28;20490;-75
2020/12/05 01:16:32;;;;;;;27.38;17.63;;;1.80;99.80;;;;;;5026495;28;20040;-75
2020/12/05 01:19:19;;;;;;;28.60;17.45;;;1.90;99.90;;;;;;5013630;28;20057;-74
2020/12/05 01:21:45;;;;;;;23.17;15.25;;;1.90;99.90;;;;;;5032188;28;20044;-75
2020/12/05 01:24:11;;;;;;;21.88;13.95;;;1.90;99.90;;;;;;5033957;28;20059;-75
2020/12/05 01:26:57;;;;;;;24.15;16.65;;;1.90;99.90;;;;;;5019599;28;20124;-75
2020/12/05 01:29:23;;;;;;;20.83;14.32;;;1.80;99.90;;;;;;5037616;28;20550;-77
2020/12/05 01:32:09;;;;;;;22.80;13.57;;;1.80;99.90;;;;;;5005879;28;20406;-75
2020/12/05 01:34:35;;;;;;;21.75;14.77;;;1.70;99.90;;;;;;5029349;28;20072;-76
2020/12/05 01:37:01;;;;;;;22.98;14.70;;;1.60;99.90;;;;;;5033797;28;20037;-76
2020/12/05 01:39:28;;;;;;;18.40;13.45;;;1.50;99.90;;;;;;5025317;28;20491;-75
2020/12/05 01:42:14;;;;;;;19.23;13.73;;;1.50;99.90;;;;;;5020996;28;20065;-76
2020/12/05 01:44:40;;;;;;;23.00;13.60;;;1.40;99.90;;;;;;5032267;28;20463;-74
2020/12/05 01:47:28;;;;;;;23.00;15.02;;;1.40;99.90;;;;;;5031870;28;20080;-77
2020/12/05 01:49:54;;;;;;;21.95;15.00;;;1.30;99.90;;;;;;5047033;28;20064;-75
2020/12/05 01:52:40;;;;;;;26.08;15.68;;;1.30;99.90;;;;;;5026262;28;20044;-77
2020/12/05 01:55:26;;;;;;;21.73;14.37;;;1.30;99.90;;;;;;5024957;28;20479;-77
2020/12/05 01:57:51;;;;;;;24.20;15.27;;;1.30;99.90;;;;;;5031391;28;20276;-76
2020/12/05 02:00:17;;;;;;;21.23;14.40;;;1.30;99.90;;;;;;5026319;28;20262;-76
2020/12/05 02:02:43;;;;;;;21.58;13.57;;;1.30;99.90;;;;;;5047364;28;20103;-76
2020/12/05 02:05:21;;;;;;;23.77;15.45;;;1.30;99.90;;;;;;5024998;28;20369;-76
2020/12/05 02:08:12;;;;;;;;;;;1.30;99.90;;;;;;5032958;28;20057;-76
2020/12/05 02:10:42;;;;;;;22.88;14.70;;;1.30;99.90;;;;;;5030964;28;19917;-76
2020/12/05 02:13:26;;;;;;;23.88;15.77;;;1.30;99.90;;;;;;5014750;28;20041;-76
2020/12/05 02:15:54;;;;;;;27.45;15.82;;;1.30;99.90;;;;;;5023162;28;20038;-75
2020/12/05 02:18:20;;;;;;;32.33;16.77;;;1.20;99.90;;;;;;5012702;28;20053;-76
2020/12/05 02:20:46;;;;;;;26.05;15.65;;;1.20;99.90;;;;;;5028281;28;20394;-76
2020/12/05 02:23:16;;;;;;;29.35;17.45;;;1.20;99.90;;;;;;5034696;28;20037;-75
2020/12/05 02:26:05;;;;;;;32.47;19.33;;;1.20;99.90;;;;;;5009946;28;20042;-76
2020/12/05 02:28:50;;;;;;;31.75;19.35;;;1.30;99.90;;;;;;5028038;28;20519;-76
2020/12/05 02:31:16;;;;;;;29.98;17.33;;;1.30;99.90;;;;;;5021631;28;20062;-75
2020/12/05 02:33:42;;;;;;;34.00;18.48;;;1.40;99.90;;;;;;5020175;28;20037;-76
2020/12/05 02:36:33;;;;;;;27.17;16.83;;;1.40;99.90;;;;;;5004779;28;20041;-76
2020/12/05 02:39:09;;;;;;;30.42;18.15;;;1.40;99.90;;;;;;5029008;28;20041;-75
2020/12/05 02:41:40;;;;;;;27.98;17.15;;;1.30;99.90;;;;;;5031609;28;20057;-75
2020/12/05 02:44:26;;;;;;;29.85;17.52;;;1.30;99.90;;;;;;5031564;28;20045;-75
2020/12/05 02:46:53;;;;;;;23.13;15.10;;;1.30;99.90;;;;;;5023269;28;20463;-75
2020/12/05 02:49:18;;;;;;;30.48;15.38;;;1.30;99.90;;;;;;5030498;28;20040;-75
2020/12/05 02:51:44;;;;;;;28.92;17.27;;;1.30;99.90;;;;;;5025569;28;20120;-75
2020/12/05 02:54:10;;;;;;;22.60;15.88;;;1.20;99.90;;;;;;5027176;28;20038;-75
2020/12/05 02:56:56;;;;;;;24.58;15.85;;;1.30;99.90;;;;;;5028015;28;20037;-75
2020/12/05 02:59:21;;;;;;;28.55;15.77;;;1.30;99.90;;;;;;5041306;28;20034;-75
2020/12/05 03:01:47;;;;;;;29.42;18.55;;;1.30;99.90;;;;;;5014491;28;20042;-76
2020/12/05 03:04:13;;;;;;;29.60;17.05;;;1.30;99.90;;;;;;5031717;28;20057;-77
2020/12/05 03:06:59;;;;;;;33.17;17.75;;;1.40;99.90;;;;;;5015749;28;20348;-76
2020/12/05 03:09:24;;;;;;;30.40;16.42;;;1.40;99.90;;;;;;5019752;28;20042;-76
2020/12/05 03:11:50;;;;;;;29.13;18.27;;;1.50;99.90;;;;;;5014593;28;20321;-76
2020/12/05 03:14:16;;;;;;;34.10;19.00;;;1.40;99.90;;;;;;5024305;28;20111;-77
2020/12/05 03:16:42;;;;;;;36.45;20.60;;;1.50;99.90;;;;;;5030528;28;20066;-77
2020/12/05 03:19:07;;;;;;;34.65;20.08;;;1.50;99.90;;;;;;5028291;28;20050;-77
2020/12/05 03:21:34;;;;;;;38.25;20.35;;;1.60;99.90;;;;;;5032192;28;20045;-76
2020/12/05 03:23:59;;;;;;;;;;;1.70;99.90;;;;;;5033447;28;20471;-77
2020/12/05 03:26:25;;;;;;;32.88;19.70;;;1.80;99.90;;;;;;5031474;28;19967;-77
2020/12/05 03:28:51;;;;;;;35.78;21.45;;;1.80;99.90;;;;;;5032480;28;20041;-77
2020/12/05 03:34:08;;;;;;;34.88;19.10;;;1.90;99.90;;;;;;5016547;28;20486;-77
2020/12/05 03:36:34;;;;;;;24.45;14.85;;;2.00;99.90;;;;;;5030746;28;20065;-77
2020/12/05 03:39:00;;;;;;;30.17;18.08;;;2.00;99.90;;;;;;5046420;28;20033;-77
2020/12/05 03:41:46;;;;;;;28.75;17.90;;;1.80;99.90;;;;;;5025819;28;20140;-77
2020/12/05 03:44:12;;;;;;;;;;;1.80;99.90;;;;;;5032044;28;20041;-77
2020/12/05 03:46:38;;;;;;;26.85;15.73;;;1.80;99.90;;;;;;5025523;28;19921;-77
2020/12/05 03:49:04;;;;;;;31.40;16.38;;;1.70;99.90;;;;;;5022604;28;20033;-77
2020/12/05 03:51:50;;;;;;;25.70;14.85;;;1.70;99.90;;;;;;5026960;28;20072;-77
2020/12/05 03:54:15;;;;;;;23.42;14.25;;;1.70;99.90;;;;;;5028795;28;20034;-77
2020/12/05 03:56:41;;;;;;;27.15;15.88;;;1.60;99.90;;;;;;5026326;28;20414;-77
2020/12/05 03:59:07;;;;;;;23.15;14.65;;;1.60;99.90;;;;;;5031850;28;20533;-77
2020/12/05 04:01:33;;;;;;;26.30;14.60;;;1.60;99.90;;;;;;5030498;28;20095;-77
2020/12/05 04:04:18;;;;;;;29.20;17.02;;;1.60;99.90;;;;;;5018217;28;20128;-77
2020/12/05 04:06:45;;;;;;;30.10;17.58;;;1.60;99.90;;;;;;5031109;28;20077;-77
2020/12/05 04:09:30;;;;;;;30.25;17.13;;;1.50;99.90;;;;;;5012539;28;20133;-78
2020/12/05 04:12:16;;;;;;;33.55;19.25;;;1.50;99.90;;;;;;5025585;28;20526;-77
2020/12/05 04:14:42;;;;;;;32.47;19.00;;;1.60;99.90;;;;;;5013239;28;20145;-77
2020/12/05 04:17:07;;;;;;;32.40;18.75;;;1.60;99.90;;;;;;5026036;28;20029;-78
2020/12/05 04:19:33;;;;;;;34.08;18.98;;;1.70;99.90;;;;;;5013644;28;20392;-76
2020/12/05 04:22:01;;;;;;;27.00;17.27;;;1.30;99.90;;;;;;5028958;28;20100;-77
2020/12/05 04:24:27;;;;;;;32.05;18.42;;;1.70;99.90;;;;;;5031501;28;20112;-77
2020/12/05 04:26:53;;;;;;;32.08;17.40;;;1.70;99.90;;;;;;5023368;28;20527;-76
2020/12/05 04:29:19;;;;;;;29.88;17.73;;;1.70;99.90;;;;;;5029256;28;20438;-76
2020/12/05 04:31:45;;;;;;;30.40;17.42;;;1.70;99.90;;;;;;5029536;28;20100;-77
2020/12/05 04:34:30;;;;;;;33.30;18.67;;;1.80;99.90;;;;;;5029069;28;20051;-77
2020/12/05 04:36:56;;;;;;;36.03;19.05;;;1.80;99.90;;;;;;5019775;28;20033;-77
2020/12/05 04:39:22;;;;;;;33.45;17.10;;;1.80;99.90;;;;;;5031135;28;20037;-77
2020/12/05 04:41:48;;;;;;;37.88;20.15;;;1.80;99.90;;;;;;5021252;28;20042;-77
2020/12/05 04:44:15;;;;;;;31.60;18.45;;;1.90;99.90;;;;;;5030687;28;20041;-77
2020/12/05 04:47:01;;;;;;;33.10;18.63;;;1.90;99.90;;;;;;5033609;28;20046;-76
2020/12/05 04:49:28;;;;;;;37.60;20.05;;;1.90;99.90;;;;;;5050577;28;20037;-76
2020/12/05 04:52:24;;;;;;;40.28;20.30;;;2.00;99.90;;;;;;5029421;28;20049;-76
2020/12/05 04:54:55;;;;;;;37.77;19.80;;;2.00;99.90;;;;;;5022858;28;20557;-75
2020/12/05 04:57:25;;;;;;;32.35;17.73;;;2.00;99.90;;;;;;5019122;28;20322;-76
2020/12/05 05:00:11;;;;;;;32.35;18.63;;;2.10;99.90;;;;;;5028723;28;20049;-76
2020/12/05 05:02:43;;;;;;;33.38;18.58;;;2.10;99.90;;;;;;5029954;28;20189;-77
2020/12/05 05:05:11;;;;;;;34.67;19.30;;;2.20;99.90;;;;;;5044811;28;20088;-76
2020/12/05 05:07:51;;;;;;;38.83;17.65;;;2.20;99.90;;;;;;5027907;28;20127;-76
2020/12/05 05:10:28;;;;;;;31.27;18.85;;;2.20;99.90;;;;;;5038333;28;20046;-76
2020/12/05 05:13:17;;;;;;;29.00;17.40;;;2.30;99.90;;;;;;5023925;28;20044;-77
2020/12/05 05:15:43;;;;;;;29.30;16.55;;;2.30;99.90;;;;;;5049888;28;20115;-76
2020/12/05 05:18:10;;;;;;;;;;;2.30;99.90;;;;;;5050101;28;20037;-76
2020/12/05 05:20:56;;;;;;;30.98;17.30;;;2.30;99.90;;;;;;5032047;28;19952;-76
2020/12/05 05:23:21;;;;;;;30.77;17.48;;;2.40;99.90;;;;;;5048865;28;20061;-76
2020/12/05 05:25:50;;;;;;;33.08;17.67;;;2.40;99.90;;;;;;5049945;28;20124;-75
2020/12/05 05:28:33;;;;;;;32.33;16.80;;;2.40;99.90;;;;;;5044764;28;20041;-76
2020/12/05 05:34:00;;;;;;;30.35;18.55;;;2.50;99.90;;;;;;5027384;28;20091;-76
2020/12/05 05:36:29;;;;;;;32.55;18.25;;;2.50;99.90;;;;;;5043488;28;20131;-76
2020/12/05 05:39:08;;;;;;;36.78;19.58;;;2.60;99.90;;;;;;5030051;28;20044;-76
2020/12/05 05:41:39;;;;;;;33.25;18.90;;;2.60;99.90;;;;;;5028237;28;20040;-75
2020/12/05 05:44:27;;;;;;;32.83;18.33;;;2.60;99.90;;;;;;5036626;28;20092;-75
2020/12/05 05:46:53;;;;;;;35.60;19.73;;;2.60;99.90;;;;;;5053424;28;20055;-75
2020/12/05 05:49:29;;;;;;;34.55;18.85;;;2.60;99.90;;;;;;5053753;28;20032;-75
2020/12/05 05:51:56;;;;;;;35.85;19.85;;;2.70;99.90;;;;;;5051981;28;20139;-76
2020/12/05 05:54:42;;;;;;;36.45;18.33;;;2.70;99.90;;;;;;5025706;28;20041;-76
2020/12/05 05:57:13;;;;;;;36.58;19.25;;;2.70;99.90;;;;;;5047493;28;20087;-76
2020/12/05 06:00:00;;;;;;;32.30;18.80;;;2.80;99.90;;;;;;5020138;28;20033;-75
2020/12/05 06:02:53;;;;;;;32.75;20.02;;;2.80;99.90;;;;;;5032997;28;20045;-75
2020/12/05 06:05:44;;;;;;;37.63;20.83;;;2.80;99.90;;;;;;5033294;28;20068;-75
2020/12/05 06:08:16;;;;;;;37.25;21.58;;;2.80;99.90;;;;;;5036458;28;20048;-76
2020/12/05 06:11:10;;;;;;;37.42;20.92;;;2.90;99.90;;;;;;5030798;28;20041;-76
2020/12/05 06:13:36;;;;;;;40.17;22.38;;;2.90;99.90;;;;;;5052358;28;20386;-76
2020/12/05 06:16:02;;;;;;;39.63;21.90;;;2.90;99.90;;;;;;5033861;28;20116;-76
2020/12/05 06:18:51;;;;;;;38.63;21.77;;;2.90;99.90;;;;;;5017354;28;20087;-76
2020/12/05 06:21:17;;;;;;;38.60;20.63;;;3.00;99.90;;;;;;5044501;28;20103;-75
2020/12/05 06:23:52;;;;;;;42.55;23.17;;;3.00;99.90;;;;;;5045701;28;20478;-76
2020/12/05 06:26:40;;;;;;;47.13;24.15;;;3.00;99.90;;;;;;5028182;28;20072;-77
2020/12/05 06:29:07;;;;;;;45.58;22.50;;;3.00;99.90;;;;;;5050337;28;20086;-76
2020/12/05 06:31:46;;;;;;;38.35;22.40;;;3.00;99.90;;;;;;5052754;28;20072;-77
2020/12/05 06:34:36;;;;;;;38.25;21.90;;;3.10;99.90;;;;;;5034331;28;20037;-77
2020/12/05 06:37:02;;;;;;;38.30;22.27;;;3.00;99.90;;;;;;5049871;28;20079;-77
2020/12/05 06:39:28;;;;;;;41.50;23.55;;;3.00;99.90;;;;;;5033816;28;20033;-77
2020/12/05 06:41:55;;;;;;;42.78;21.52;;;3.00;99.90;;;;;;5039210;28;20498;-77
2020/12/05 06:44:22;;;;;;;42.08;24.17;;;3.10;99.90;;;;;;5053036;28;20041;-77
2020/12/05 06:46:53;;;;;;;41.20;23.58;;;3.10;99.90;;;;;;5051455;28;20040;-77
2020/12/05 06:49:52;;;;;;;51.22;24.77;;;3.10;99.90;;;;;;5052150;28;20068;-76
2020/12/05 06:52:24;;;;;;;46.38;24.75;;;3.10;99.90;;;;;;5019158;28;20053;-77
2020/12/05 06:54:59;;;;;;;41.17;23.55;;;3.10;99.90;;;;;;5027808;28;20436;-77
2020/12/05 06:57:29;;;;;;;43.22;24.02;;;3.10;99.90;;;;;;5052865;28;20040;-77
2020/12/05 07:00:18;;;;;;;53.60;26.83;;;3.10;99.90;;;;;;5044737;28;20138;-77
2020/12/05 07:03:07;;;;;;;41.25;24.02;;;3.10;99.90;;;;;;5035904;28;20510;-78
2020/12/05 07:05:35;;;;;;;39.22;23.35;;;3.10;99.90;;;;;;5049688;28;20037;-78
2020/12/05 07:08:37;;;;;;;48.88;24.75;;;3.20;99.90;;;;;;5024403;28;20498;-77
2020/12/05 07:11:10;;;;;;;48.90;25.42;;;3.20;99.90;;;;;;5055085;28;20041;-77
2020/12/05 07:13:44;;;;;;;47.97;24.95;;;3.20;99.90;;;;;;5031778;28;20037;-78
2020/12/05 07:16:23;;;;;;;42.28;23.63;;;3.30;99.90;;;;;;5014599;28;20398;-78
2020/12/05 07:18:50;;;;;;;42.60;24.20;;;3.20;99.90;;;;;;5043919;28;20406;-79
2020/12/05 07:21:36;;;;;;;;;;;3.20;99.90;;;;;;5037507;28;20510;-77
2020/12/05 07:24:02;;;;;;;46.95;24.23;;;3.20;99.90;;;;;;5050578;28;19916;-78
2020/12/05 07:26:28;;;;;;;50.53;26.15;;;3.20;99.90;;;;;;5052361;28;20045;-77
2020/12/05 07:28:56;;;;;;;51.10;26.00;;;3.20;99.90;;;;;;5051064;28;20121;-76
2020/12/05 07:31:22;;;;;;;60.30;29.92;;;3.20;99.90;;;;;;5052179;28;20044;-77
2020/12/05 07:33:48;;;;;;;55.22;30.65;;;3.20;99.90;;;;;;5032851;28;20372;-77
2020/12/05 07:36:16;;;;;;;57.25;32.53;;;3.30;99.90;;;;;;5034831;28;20045;-77
2020/12/05 07:39:03;;;;;;;55.33;28.92;;;3.30;99.90;;;;;;5017170;28;20057;-78
2020/12/05 07:41:29;;;;;;;50.72;27.13;;;3.30;99.90;;;;;;5041695;28;20121;-77
2020/12/05 07:44:19;;;;;;;46.10;27.55;;;3.30;99.90;;;;;;5053261;28;20041;-77
2020/12/05 07:46:44;;;;;;;54.08;28.35;;;3.40;99.90;;;;;;5044633;28;20049;-77
2020/12/05 07:49:11;;;;;;;49.00;27.50;;;3.40;99.90;;;;;;5042449;28;20080;-77
2020/12/05 07:51:58;;;;;;;46.35;27.23;;;3.40;99.90;;;;;;5036444;28;20410;-77
2020/12/05 07:54:24;;;;;;;57.20;31.75;;;3.40;99.90;;;;;;5046296;28;20033;-75
2020/12/05 07:56:50;;;;;;;54.58;29.73;;;3.40;99.90;;;;;;5049340;28;20486;-75
2020/12/05 07:59:20;;;;;;;50.83;28.15;;;3.70;99.90;;;;;;5047516;28;20041;-76
2020/12/05 08:02:04;;;;;;;52.58;27.40;;;3.60;99.90;;;;;;5049873;28;20433;-75
2020/12/05 08:05:01;;;;;;;51.85;30.02;;;3.60;99.90;;;;;;5044971;28;20382;-75
2020/12/05 08:07:41;;;;;;;48.75;28.15;;;3.60;99.90;;;;;;5041178;28;20503;-76
2020/12/05 08:10:13;;;;;;;48.65;25.83;;;3.60;99.90;;;;;;5048935;28;20057;-76
2020/12/05 08:13:24;;;;;;;44.60;26.20;;;3.60;99.90;;;;;;5030130;28;20056;-76
2020/12/05 08:16:10;;;;;;;48.28;25.20;;;3.60;99.90;;;;;;5033808;28;20169;-76
2020/12/05 08:18:41;;;;;;;52.17;28.73;;;3.50;99.90;;;;;;5012560;28;20041;-76
2020/12/05 08:21:07;;;;;;;44.38;26.70;;;3.50;99.90;;;;;;5046696;28;20064;-78
2020/12/05 08:23:37;;;;;;;49.38;29.65;;;3.50;99.90;;;;;;5033687;28;20116;-77
2020/12/05 08:26:08;;;;;;;49.00;29.45;;;3.50;99.90;;;;;;5045352;28;20045;-79
2020/12/05 08:28:42;;;;;;;60.75;31.88;;;3.60;99.90;;;;;;5045909;28;20068;-78
2020/12/05 08:31:30;;;;;;;51.20;30.65;;;3.60;99.90;;;;;;5034333;28;20588;-79
2020/12/05 08:33:55;;;;;;;;;;;3.60;99.90;;;;;;5049321;28;20474;-79
2020/12/05 08:36:27;;;;;;;50.30;29.55;;;3.60;99.90;;;;;;5042043;28;20229;-75
2020/12/05 08:39:15;;;;;;;51.78;28.88;;;3.60;99.90;;;;;;5026255;28;20122;-78
2020/12/05 08:41:41;;;;;;;62.63;31.25;;;3.70;99.90;;;;;;5050295;28;20067;-78
2020/12/05 08:44:29;;;;;;;46.92;28.38;;;3.70;99.90;;;;;;5032405;28;20040;-80
2020/12/05 08:47:07;;;;;;;49.13;26.70;;;3.60;99.90;;;;;;5037972;28;20069;-79
2020/12/05 08:49:44;;;;;;;57.50;31.35;;;3.70;99.90;;;;;;5045923;28;20139;-78
2020/12/05 08:52:12;;;;;;;57.78;30.23;;;3.70;99.90;;;;;;5049608;28;20032;-78
2020/12/05 08:54:57;;;;;;;53.30;29.77;;;4.10;99.90;;;;;;5010334;28;20049;-78
2020/12/05 08:57:23;;;;;;;52.08;31.20;;;3.70;99.90;;;;;;5044646;28;20037;-81
2020/12/05 09:00:09;;;;;;;49.75;29.58;;;3.70;99.90;;;;;;5032636;28;20041;-80
2020/12/05 09:02:36;;;;;;;45.90;26.85;;;3.70;99.90;;;;;;5044943;28;20093;-77
2020/12/05 09:05:22;;;;;;;60.28;34.17;;;3.70;99.90;;;;;;5019496;28;20068;-80
2020/12/05 09:08:09;;;;;;;51.45;29.40;;;3.70;99.90;;;;;;5050871;28;20572;-80
2020/12/05 09:10:35;;;;;;;53.00;31.60;;;3.80;99.90;;;;;;5050281;28;20037;-79
2020/12/05 09:13:06;;;;;;;45.33;29.42;;;3.80;99.90;;;;;;5047094;28;20029;-79
2020/12/05 09:16:03;;;;;;;56.28;31.15;;;3.80;99.90;;;;;;5035396;28;20053;-79
2020/12/05 09:18:50;;;;;;;49.08;28.63;;;3.80;99.90;;;;;;5046149;28;20418;-79
2020/12/05 09:21:20;;;;;;;59.70;31.73;;;3.90;99.90;;;;;;5046365;28;20033;-78
2020/12/05 09:24:05;;;;;;;47.78;30.75;;;3.90;99.90;;;;;;5051060;28;20036;-78
2020/12/05 09:26:32;;;;;;;64.72;35.15;;;3.90;99.90;;;;;;5051025;28;20037;-80
2020/12/05 09:29:18;;;;;;;52.65;30.33;;;3.90;99.90;;;;;;5033463;28;20478;-78
2020/12/05 09:31:48;;;;;;;50.75;30.85;;;4.00;99.90;;;;;;5054944;28;20037;-79
2020/12/05 09:34:14;;;;;;;50.50;29.27;;;4.10;99.90;;;;;;5051742;28;20037;-79
2020/12/05 09:37:00;;;;;;;50.00;28.60;;;4.10;99.90;;;;;;5026754;28;20052;-78
2020/12/05 09:39:46;;;;;;;49.63;27.90;;;4.20;99.90;;;;;;5026220;28;20045;-81
2020/12/05 09:42:22;;;;;;;43.75;28.42;;;4.30;99.90;;;;;;5051650;28;20029;-78
2020/12/05 09:44:48;;;;;;;;;;;4.40;99.90;;;;;;5049706;28;20037;-79
2020/12/05 09:47:14;;;;;;;44.03;28.08;;;4.40;99.90;;;;;;5045677;28;19917;-78
2020/12/05 09:50:00;;;;;;;46.50;29.10;;;4.40;99.90;;;;;;5042433;28;20206;-78
2020/12/05 09:52:26;;;;;;;48.10;29.52;;;4.50;99.90;;;;;;5055890;28;20462;-81
2020/12/05 09:55:15;;;;;;;56.35;32.65;;;4.50;99.90;;;;;;5018245;28;20136;-80
2020/12/05 09:58:01;;;;;;;47.85;31.00;;;4.50;99.90;;;;;;5036045;28;20410;-78
2020/12/05 10:00:27;;;;;;;48.28;31.10;;;4.60;99.90;;;;;;5054000;28;20041;-80
2020/12/05 10:02:53;;;;;;;50.90;31.27;;;4.60;99.90;;;;;;5025747;28;20057;-80
2020/12/05 10:05:39;;;;;;;47.92;31.13;;;4.70;99.90;;;;;;5039580;28;20091;-77
2020/12/05 10:08:25;;;;;;;41.78;27.33;;;4.70;99.90;;;;;;5037172;28;20048;-80
2020/12/05 10:10:50;;;;;;;41.95;27.27;;;4.80;99.90;;;;;;5047707;28;20037;-77
2020/12/05 10:13:16;;;;;;;38.88;25.55;;;4.80;99.90;;;;;;5035577;28;20029;-81
2020/12/05 10:16:02;;;;;;;51.33;32.17;;;4.90;99.90;;;;;;5053500;28;20457;-80
2020/12/05 10:18:27;;;;;;;57.20;36.53;;;4.90;99.90;;;;;;5028575;28;20037;-77
2020/12/05 10:20:53;;;;;;;52.65;35.67;;;5.00;99.90;;;;;;5048455;28;20471;-78
2020/12/05 10:23:19;;;;;;;38.67;26.02;;;5.10;99.90;;;;;;5053152;28;20052;-78
2020/12/05 10:26:07;;;;;;;29.95;22.30;;;5.10;99.90;;;;;;5029309;28;20041;-77
2020/12/05 10:28:53;;;;;;;35.67;22.52;;;5.20;99.90;;;;;;5021110;28;20474;-78
2020/12/05 10:31:46;;;;;;;33.42;22.83;;;5.10;99.90;;;;;;5035962;28;20402;-77
2020/12/05 10:34:13;;;;;;;29.38;18.77;;;5.10;99.90;;;;;;5034243;28;20037;-79
2020/12/05 10:36:40;;;;;;;25.40;17.75;;;5.10;99.90;;;;;;5049808;28;20060;-80
2020/12/05 10:39:09;;;;;;;32.45;20.00;;;5.10;99.90;;;;;;5045794;28;20478;-78
2020/12/05 10:41:36;;;;;;;27.95;18.70;;;5.00;99.90;;;;;;5029187;28;20115;-79
2020/12/05 10:44:06;;;;;;;27.10;19.27;;;5.00;99.90;;;;;;5043101;28;20041;-78
2020/12/05 10:46:51;;;;;;;28.75;18.33;;;5.10;99.90;;;;;;5018215;28;20056;-80
2020/12/05 10:49:19;;;;;;;38.92;20.38;;;5.10;99.90;;;;;;5051511;28;20045;-77
2020/12/05 10:51:46;;;;;;;34.20;22.70;;;5.10;99.90;;;;;;5033494;28;20033;-79
2020/12/05 10:54:13;;;;;;;33.92;23.23;;;5.10;99.90;;;;;;5048478;28;20479;-77
2020/12/05 10:56:40;;;;;;;30.42;22.65;;;5.20;99.90;;;;;;5046192;28;20114;-79
2020/12/05 10:59:06;;;;;;;30.88;21.58;;;5.30;99.90;;;;;;5051930;28;20090;-77
2020/12/05 11:01:32;;;;;;;28.52;18.90;;;5.40;99.90;;;;;;5053013;28;20037;-81
2020/12/05 11:03:58;;;;;;;24.85;17.60;;;5.50;99.90;;;;;;5021420;28;20043;-79
2020/12/05 11:06:26;;;;;;;21.42;14.82;;;5.60;99.90;;;;;;5053157;28;20068;-81
2020/12/05 11:09:11;;;;;;;;;;;5.60;99.90;;;;;;5015916;28;20052;-81
2020/12/05 11:11:57;;;;;;;21.67;13.90;;;5.60;99.50;;;;;;5035058;28;19920;-79
2020/12/05 11:14:24;;;;;;;18.55;13.23;;;5.60;99.20;;;;;;5032735;28;20069;-80
2020/12/05 11:16:50;;;;;;;16.17;11.52;;;5.70;99.00;;;;;;5041854;28;20079;-81
2020/12/05 11:19:16;;;;;;;14.98;11.50;;;5.70;99.20;;;;;;5051466;28;20036;-78
2020/12/05 11:21:44;;;;;;;17.02;11.57;;;5.70;98.60;;;;;;5033143;28;20056;-79
2020/12/05 11:24:10;;;;;;;17.58;10.68;;;5.70;98.70;;;;;;5052382;28;20047;-81
2020/12/05 11:26:36;;;;;;;13.65;8.48;;;5.70;98.30;;;;;;5051733;28;20390;-81
2020/12/05 11:29:04;;;;;;;11.25;8.95;;;5.70;97.40;;;;;;5051805;28;20045;-80
2020/12/05 11:31:50;;;;;;;15.30;9.52;;;5.60;97.30;;;;;;5023180;28;20052;-78
2020/12/05 11:34:16;;;;;;;9.82;8.05;;;5.60;97.50;;;;;;5051806;28;20037;-80
2020/12/05 11:36:43;;;;;;;12.80;8.48;;;5.60;96.80;;;;;;5050656;28;20079;-77
2020/12/05 11:39:29;;;;;;;12.90;8.50;;;5.60;96.50;;;;;;5021417;28;20045;-80
2020/12/05 11:42:14;;;;;;;11.52;7.35;;;5.60;96.50;;;;;;5025064;28;20049;-81
2020/12/05 11:44:40;;;;;;;10.60;7.85;;;5.60;96.20;;;;;;5031332;28;20039;-81
2020/12/05 11:47:06;;;;;;;12.07;7.78;;;5.70;95.70;;;;;;5031604;28;20049;-80
2020/12/05 11:49:33;;;;;;;11.10;7.60;;;5.70;95.60;;;;;;5031148;28;20509;-81
2020/12/05 11:52:01;;;;;;;12.80;8.63;;;5.60;94.90;;;;;;5030733;28;20041;-79
2020/12/05 11:54:27;;;;;;;12.20;9.65;;;5.60;95.00;;;;;;5019149;28;20052;-79
2020/12/05 11:56:53;;;;;;;15.13;10.52;;;5.60;94.90;;;;;;5032586;28;20045;-79
2020/12/05 11:59:19;;;;;;;17.23;11.70;;;5.60;95.00;;;;;;5051454;28;20397;-78
2020/12/05 12:02:05;;;;;;;16.85;11.60;;;5.60;95.20;;;;;;5036354;28;20073;-81
2020/12/05 12:04:51;;;;;;;14.00;10.82;;;5.60;95.40;;;;;;5022297;28;20051;-79
2020/12/05 12:07:16;;;;;;;16.85;10.73;;;5.70;95.40;;;;;;5050410;28;20049;-80
2020/12/05 12:10:02;;;;;;;16.35;10.38;;;5.60;95.50;;;;;;5037517;28;20463;-80
2020/12/05 12:12:28;;;;;;;11.88;9.27;;;5.70;95.00;;;;;;5033716;28;20040;-79
2020/12/05 12:14:54;;;;;;;10.95;7.68;;;5.70;94.60;;;;;;5037087;28;20029;-82
2020/12/05 12:17:20;;;;;;;12.35;7.03;;;5.70;94.20;;;;;;5050423;28;20037;-79
2020/12/05 12:19:45;;;;;;;9.90;6.93;;;5.70;94.00;;;;;;5032890;28;20051;-79
2020/12/05 12:22:11;;;;;;;10.63;7.57;;;5.70;93.50;;;;;;5018703;28;20044;-80
2020/12/05 12:24:57;;;;;;;10.00;8.00;;;5.70;93.40;;;;;;5021220;28;20053;-78
2020/12/05 12:27:43;;;;;;;10.90;7.70;;;5.70;92.80;;;;;;5033910;28;20033;-79
2020/12/05 12:30:28;;;;;;;10.45;7.05;;;5.70;92.30;;;;;;5022488;28;20474;-80
2020/12/05 12:32:54;;;;;;;10.70;8.27;;;5.70;92.40;;;;;;5048705;28;20041;-80
2020/12/05 12:35:40;;;;;;;12.00;8.02;;;5.70;92.10;;;;;;5022722;28;20045;-82
2020/12/05 12:38:06;;;;;;;11.38;7.50;;;5.90;91.50;;;;;;5043599;28;20550;-79
2020/12/05 12:40:32;;;;;;;8.93;6.75;;;5.80;92.10;;;;;;5048669;28;20041;-82
2020/12/05 12:43:17;;;;;;;12.20;7.22;;;5.80;91.70;;;;;;5032137;28;20053;-78
2020/12/05 12:45:44;;;;;;;10.30;6.25;;;5.80;91.90;;;;;;5047558;28;20035;-79
2020/12/05 12:50:56;;;;;;;8.70;5.95;;;5.80;91.00;;;;;;5026035;28;20482;-80
2020/12/05 12:53:22;;;;;;;9.35;7.07;;;5.70;90.60;;;;;;5036922;28;20143;-80
2020/12/05 12:55:49;;;;;;;7.95;5.90;;;5.80;90.40;;;;;;5043851;28;20064;-79
2020/12/05 12:58:28;;;;;;;8.98;6.05;;;5.70;90.40;;;;;;5043742;28;20045;-81
2020/12/05 13:00:54;;;;;;;8.38;5.82;;;5.70;90.90;;;;;;5045235;28;20033;-82
2020/12/05 13:03:40;;;;;;;8.45;5.75;;;5.80;90.80;;;;;;5011426;28;20386;-82
2020/12/05 13:06:25;;;;;;;6.90;5.05;;;5.70;91.00;;;;;;5021737;28;20469;-78
2020/12/05 13:09:11;;;;;;;7.57;4.57;;;5.70;90.80;;;;;;5024529;28;20042;-78
2020/12/05 13:11:38;;;;;;;8.35;4.63;;;5.70;90.90;;;;;;5029076;28;20048;-79
2020/12/05 13:14:24;;;;;;;6.05;4.45;;;5.70;91.20;;;;;;5027512;28;20179;-80
2020/12/05 13:17:10;;;;;;;7.57;4.93;;;5.70;91.50;;;;;;5001786;28;20060;-80
2020/12/05 13:19:56;;;;;;;5.30;3.83;;;5.80;91.40;;;;;;4999628;28;20053;-80
2020/12/05 13:22:22;;;;;;;5.93;3.88;;;5.80;91.50;;;;;;5010525;28;20502;-82